createdAt,value
2022-11-17T00:01:54.259Z,100252.22
2022-11-17T00:04:28.959Z,100249.34
2022-11-17T00:07:00.795Z,100243.13
2022-11-17T00:09:32.717Z,100246.81
2022-11-17T00:12:23.572Z,100236.06
2022-11-17T00:14:55.976Z,100249.72
2022-11-17T00:17:27.924Z,100248.03
2022-11-17T00:20:18.451Z,100249.72
2022-11-17T00:22:50.688Z,100244.97
2022-11-17T00:25:22.736Z,100237.28
2022-11-17T00:27:54.903Z,100243.31
2022-11-17T00:30:45.386Z,100220.94
2022-11-17T00:33:36.592Z,100233.59
2022-11-17T00:36:08.818Z,100216.31
2022-11-17T00:38:40.707Z,100222.88
2022-11-17T00:41:12.565Z,100218.50
2022-11-17T00:43:44.473Z,100217.66
2022-11-17T00:46:16.317Z,100220.56
2022-11-17T00:48:48.283Z,100213.50
2022-11-17T00:51:20.720Z,100209.13
2022-11-17T00:53:52.944Z,100194.50
2022-11-17T00:56:27.874Z,100199.06
2022-11-17T00:59:00.304Z,100189.13
2022-11-17T01:01:32.464Z,100191.34
2022-11-17T01:04:04.952Z,100179.56
2022-11-17T01:06:39.456Z,100201.91
2022-11-17T01:09:19.754Z,100203.13
2022-11-17T01:11:52.931Z,100192.38
2022-11-17T01:14:27.489Z,100197.75
2022-11-17T01:16:59.513Z,100190.69
2022-11-17T01:19:31.422Z,100192.38
2022-11-17T01:22:03.885Z,100192.53
2022-11-17T01:24:35.822Z,100181.63
2022-11-17T01:27:08.176Z,100169.19
2022-11-17T01:29:40.053Z,100172.22
2022-11-17T01:32:11.847Z,100156.28
2022-11-17T01:34:43.718Z,100152.75
2022-11-17T01:37:21.863Z,100159.16
2022-11-17T01:39:53.709Z,100147.56
2022-11-17T01:42:26.994Z,100146.38
2022-11-17T01:45:02.693Z,100137.66
2022-11-17T01:47:36.042Z,100127.28
2022-11-17T01:50:22.535Z,100118.53
2022-11-17T01:52:56.914Z,100122.91
2022-11-17T01:55:38.034Z,100121.06
2022-11-17T01:58:14.530Z,100127.63
2022-11-17T02:00:46.439Z,100133.00
2022-11-17T02:03:18.353Z,100132.16
2022-11-17T02:06:08.260Z,100131.31
2022-11-17T02:08:41.688Z,100121.78
2022-11-17T02:11:17.039Z,100128.00
2022-11-17T02:13:49.206Z,100105.66
2022-11-17T02:16:21.024Z,100104.81
2022-11-17T02:18:52.948Z,100107.22
2022-11-17T02:21:39.954Z,100110.91
2022-11-17T02:24:45.624Z,100098.47
2022-11-17T02:27:30.912Z,100107.94
2022-11-17T02:30:06.164Z,100102.56
2022-11-17T02:33:13.006Z,100107.09
2022-11-17T02:36:19.331Z,100103.75
2022-11-17T02:39:03.421Z,100115.69
2022-11-17T02:41:45.102Z,100101.63
2022-11-17T02:44:37.707Z,100096.25
2022-11-17T02:47:14.938Z,100088.53
2022-11-17T02:49:50.638Z,100077.16
2022-11-17T02:52:23.149Z,100079.00
2022-11-17T02:55:02.949Z,100081.22
2022-11-17T02:57:37.110Z,100077.88
2022-11-17T03:00:11.151Z,100093.81
2022-11-17T03:03:01.958Z,100060.06
2022-11-17T03:05:36.758Z,100072.88
2022-11-17T03:08:17.774Z,100066.44
2022-11-17T03:10:57.364Z,100060.63
2022-11-17T03:13:35.254Z,100060.78
2022-11-17T03:16:16.445Z,100062.84
2022-11-17T03:19:18.420Z,100067.19
2022-11-17T03:21:56.190Z,100048.41
2022-11-17T03:24:28.982Z,100050.41
2022-11-17T03:27:04.855Z,100051.41
2022-11-17T03:29:38.723Z,100048.09
2022-11-17T03:32:11.296Z,100045.41
2022-11-17T03:34:46.332Z,100057.16
2022-11-17T03:37:19.329Z,100036.69
2022-11-17T03:39:53.341Z,100034.84
2022-11-17T03:42:30.685Z,100043.06
2022-11-17T03:45:09.178Z,100035.38
2022-11-17T03:47:42.236Z,100030.03
2022-11-17T03:50:18.737Z,100020.28
2022-11-17T03:52:51.216Z,99999.81
2022-11-17T03:55:26.872Z,99999.34
2022-11-17T03:58:06.844Z,99982.56
2022-11-17T04:00:40.577Z,99995.16
2022-11-17T04:03:12.729Z,99997.22
2022-11-17T04:05:45.704Z,99995.91
2022-11-17T04:08:19.645Z,99996.25
2022-11-17T04:11:10.379Z,100000.59
2022-11-17T04:14:01.008Z,100004.13
2022-11-17T04:16:32.969Z,100003.28
2022-11-17T04:19:04.808Z,99992.56
2022-11-17T04:21:36.846Z,99983.13
2022-11-17T04:24:08.938Z,99985.16
2022-11-17T04:26:59.440Z,99978.13
2022-11-17T04:29:31.339Z,99974.13
2022-11-17T04:32:03.603Z,99968.09
2022-11-17T04:34:35.708Z,99966.63
2022-11-17T04:37:17.237Z,99972.00
2022-11-17T04:39:49.173Z,99976.31
2022-11-17T04:42:21.031Z,99960.44
2022-11-17T04:44:52.923Z,99953.22
2022-11-17T04:47:24.848Z,99963.75
2022-11-17T04:49:56.640Z,99971.78
2022-11-17T04:52:30.024Z,99972.81
2022-11-17T04:55:02.057Z,99979.84
2022-11-17T04:57:33.917Z,99948.31
2022-11-17T05:00:06.556Z,99950.69
2022-11-17T05:02:38.493Z,99938.66
2022-11-17T05:05:10.323Z,99937.81
2022-11-17T05:07:42.139Z,99945.22
2022-11-17T05:10:14.987Z,99948.44
2022-11-17T05:13:05.203Z,99950.28
2022-11-17T05:15:55.669Z,99951.78
2022-11-17T05:18:27.496Z,99939.38
2022-11-17T05:21:04.016Z,99937.69
2022-11-17T05:23:55.024Z,99940.38
2022-11-17T05:26:29.649Z,99948.44
2022-11-17T05:29:03.393Z,99936.84
2022-11-17T05:31:35.616Z,99933.34
2022-11-17T05:34:09.393Z,99921.97
2022-11-17T05:36:41.880Z,99931.03
2022-11-17T05:39:14.094Z,99927.34
2022-11-17T05:41:46.021Z,99935.09
2022-11-17T05:44:17.869Z,99932.56
2022-11-17T05:46:49.891Z,99926.38
2022-11-17T05:49:21.722Z,99939.78
2022-11-17T05:51:53.840Z,99947.84
2022-11-17T05:54:26.996Z,99937.09
2022-11-17T05:57:05.982Z,99925.06
2022-11-17T05:59:45.102Z,99953.56
2022-11-17T06:02:31.538Z,99923.41
2022-11-17T06:05:04.087Z,99926.53
2022-11-17T06:07:36.907Z,99920.16
2022-11-17T06:10:09.433Z,99911.13
2022-11-17T06:12:41.263Z,99911.94
2022-11-17T06:15:13.242Z,99902.59
2022-11-17T06:17:52.421Z,99911.19
2022-11-17T06:20:32.101Z,99917.41
2022-11-17T06:23:06.258Z,99919.03
2022-11-17T06:25:39.090Z,99923.41
2022-11-17T06:28:13.871Z,99920.38
2022-11-17T06:30:45.746Z,99924.69
2022-11-17T06:33:19.224Z,99913.13
2022-11-17T06:35:51.225Z,99922.38
2022-11-17T06:38:23.116Z,99920.53
2022-11-17T06:40:55.742Z,99913.34
2022-11-17T06:43:27.706Z,99914.34
2022-11-17T06:46:05.827Z,99912.03
2022-11-17T06:48:38.467Z,99921.72
2022-11-17T06:51:10.687Z,99907.97
2022-11-17T06:53:42.620Z,99917.69
2022-11-17T06:56:16.969Z,99916.00
2022-11-17T06:58:48.974Z,99916.34
2022-11-17T07:01:20.998Z,99904.31
2022-11-17T07:03:52.991Z,99920.41
2022-11-17T07:06:24.980Z,99922.09
2022-11-17T07:08:57.025Z,99916.72
2022-11-17T07:11:29.324Z,99911.00
2022-11-17T07:14:01.466Z,99910.16
2022-11-17T07:16:34.175Z,99913.03
2022-11-17T07:19:08.296Z,99900.63
2022-11-17T07:21:40.204Z,99917.72
2022-11-17T07:24:12.057Z,99898.97
2022-11-17T07:26:43.989Z,99904.78
2022-11-17T07:29:15.986Z,99901.31
2022-11-17T07:31:48.146Z,99907.28
2022-11-17T07:34:20.092Z,99905.63
2022-11-17T07:36:51.908Z,99905.81
2022-11-17T07:39:23.713Z,99900.63
2022-11-17T07:41:56.835Z,99906.00
2022-11-17T07:44:30.489Z,99900.63
2022-11-17T07:47:02.652Z,99893.75
2022-11-17T07:49:35.102Z,99903.00
2022-11-17T07:52:07.050Z,99900.34
2022-11-17T07:54:39.040Z,99901.16
2022-11-17T07:57:11.023Z,99907.16
2022-11-17T07:59:43.202Z,99901.63
2022-11-17T08:02:15.177Z,99891.75
2022-11-17T08:04:47.124Z,99901.63
2022-11-17T08:07:19.090Z,99897.94
2022-11-17T08:09:51.172Z,99890.91
2022-11-17T08:12:28.193Z,99888.22
2022-11-17T08:15:03.825Z,99903.31
2022-11-17T08:17:35.714Z,99886.22
2022-11-17T08:20:08.386Z,99880.63
2022-11-17T08:22:40.742Z,99879.00
2022-11-17T08:25:13.873Z,99889.53
2022-11-17T08:27:46.006Z,99880.47
2022-11-17T08:30:19.414Z,99880.84
2022-11-17T08:32:55.316Z,99879.63
2022-11-17T08:35:30.730Z,99873.09
2022-11-17T08:38:16.820Z,99868.72
2022-11-17T08:40:49.102Z,99870.41
2022-11-17T08:43:21.356Z,99884.66
2022-11-17T08:45:53.249Z,99862.34
2022-11-17T08:48:25.571Z,99865.38
2022-11-17T08:50:58.025Z,99860.22
2022-11-17T08:53:29.922Z,99855.31
2022-11-17T08:56:02.042Z,99855.31
2022-11-17T08:58:44.769Z,99853.00
2022-11-17T09:01:21.115Z,99839.22
2022-11-17T09:03:53.241Z,99849.13
2022-11-17T09:06:25.157Z,99875.09
2022-11-17T09:08:57.831Z,99857.34
2022-11-17T09:11:29.956Z,99858.19
2022-11-17T09:14:02.537Z,99863.06
2022-11-17T09:16:35.107Z,99855.69
2022-11-17T09:19:07.248Z,99850.97
2022-11-17T09:21:39.181Z,99835.53
2022-11-17T09:24:11.853Z,99861.53
2022-11-17T09:26:44.688Z,99864.66
2022-11-17T09:29:17.214Z,99856.28
2022-11-17T09:31:49.893Z,99850.91
2022-11-17T09:34:22.037Z,99868.66
2022-11-17T09:36:54.079Z,99853.88
2022-11-17T09:39:26.034Z,99848.13
2022-11-17T09:41:58.108Z,99854.50
2022-11-17T09:44:40.399Z,99839.06
2022-11-17T09:47:24.669Z,99857.66
2022-11-17T09:50:11.547Z,99844.91
2022-11-17T09:53:05.444Z,99841.22
2022-11-17T09:55:40.056Z,99838.16
2022-11-17T09:58:35.146Z,99841.66
2022-11-17T10:01:12.416Z,99838.97
2022-11-17T10:03:47.831Z,99840.66
2022-11-17T10:06:22.097Z,99864.81
2022-11-17T10:09:11.338Z,99836.59
2022-11-17T10:11:44.229Z,99831.88
2022-11-17T10:14:19.140Z,99832.50
2022-11-17T10:16:53.987Z,99833.19
2022-11-17T10:19:31.254Z,99841.84
2022-11-17T10:22:03.235Z,99814.22
2022-11-17T10:24:44.239Z,99816.69
2022-11-17T10:27:33.462Z,99820.88
2022-11-17T10:30:22.613Z,99803.94
2022-11-17T10:32:56.909Z,99813.00
2022-11-17T10:35:34.098Z,99802.25
2022-11-17T10:38:20.892Z,99818.34
2022-11-17T10:40:53.545Z,99805.94
2022-11-17T10:43:35.595Z,99805.94
2022-11-17T10:46:14.337Z,99794.19
2022-11-17T10:49:00.916Z,99800.22
2022-11-17T10:51:34.088Z,99789.84
2022-11-17T10:54:08.977Z,99795.69
2022-11-17T10:56:46.770Z,99790.50
2022-11-17T10:59:32.432Z,99779.50
2022-11-17T11:02:39.730Z,99790.56
2022-11-17T11:05:14.158Z,99794.31
2022-11-17T11:07:46.044Z,99780.06
2022-11-17T11:10:20.159Z,99794.66
2022-11-17T11:12:59.258Z,99785.13
2022-11-17T11:15:34.563Z,99789.66
2022-11-17T11:18:17.450Z,99752.44
2022-11-17T11:21:13.529Z,99757.00
2022-11-17T11:24:06.989Z,99765.41
2022-11-17T11:27:00.613Z,99781.97
2022-11-17T11:29:47.406Z,99789.00
2022-11-17T11:32:49.241Z,99770.22
2022-11-17T11:35:55.714Z,99778.66
2022-11-17T11:38:42.549Z,99771.00
2022-11-17T11:41:41.954Z,99769.66
2022-11-17T11:44:23.857Z,99774.13
2022-11-17T11:47:11.458Z,99762.09
2022-11-17T11:49:50.334Z,99761.44
2022-11-17T11:52:26.666Z,99759.75
2022-11-17T11:55:20.868Z,99763.16
2022-11-17T11:58:01.274Z,99756.16
2022-11-17T12:00:33.794Z,99756.88
2022-11-17T12:03:16.100Z,99768.50
2022-11-17T12:06:32.934Z,99765.75
2022-11-17T12:09:20.063Z,99754.91
2022-11-17T12:12:02.672Z,99756.91
2022-11-17T12:14:37.136Z,99743.22
2022-11-17T12:17:14.732Z,99763.16
2022-11-17T12:19:55.020Z,99753.44
2022-11-17T12:22:29.634Z,99753.44
2022-11-17T12:25:12.781Z,99765.84
2022-11-17T12:27:49.896Z,99771.56
2022-11-17T12:30:30.590Z,99770.06
2022-11-17T12:33:08.426Z,99761.19
2022-11-17T12:35:40.267Z,99758.69
2022-11-17T12:38:15.377Z,99759.53
2022-11-17T12:40:48.117Z,99767.56
2022-11-17T12:43:23.983Z,99777.94
2022-11-17T12:45:55.831Z,99769.91
2022-11-17T12:48:35.837Z,99772.38
2022-11-17T12:51:27.781Z,99775.25
2022-11-17T12:54:03.409Z,99777.75
2022-11-17T12:56:40.690Z,99764.34
2022-11-17T12:59:21.281Z,99793.66
2022-11-17T13:02:00.304Z,99763.16
2022-11-17T13:04:43.751Z,99770.88
2022-11-17T13:07:22.159Z,99767.53
2022-11-17T13:09:59.152Z,99770.88
2022-11-17T13:12:33.068Z,99768.00
2022-11-17T13:15:05.777Z,99775.22
2022-11-17T13:17:44.053Z,99766.50
2022-11-17T13:20:26.960Z,99769.03
2022-11-17T13:23:03.015Z,99773.38
2022-11-17T13:29:26.618Z,99769.19
2022-11-17T13:32:13.682Z,99762.31
2022-11-17T13:34:50.646Z,99772.22
2022-11-17T13:37:25.276Z,99761.50
2022-11-17T13:40:19.808Z,99773.22
2022-11-17T13:42:51.801Z,99779.41
2022-11-17T13:45:23.877Z,99766.84
2022-11-17T13:47:59.447Z,99777.56
2022-11-17T13:50:31.474Z,99781.94
2022-11-17T13:53:05.648Z,99772.22
2022-11-17T13:55:44.126Z,99788.13
2022-11-17T13:58:27.280Z,99788.63
2022-11-17T14:00:59.665Z,99788.25
2022-11-17T14:03:35.821Z,99773.50
2022-11-17T14:06:10.040Z,99777.66
2022-11-17T14:08:44.031Z,99785.69
2022-11-17T14:11:21.241Z,99794.41
2022-11-17T14:13:58.779Z,99795.22
2022-11-17T14:16:35.101Z,99783.13
2022-11-17T14:19:16.337Z,99796.34
2022-11-17T14:22:09.628Z,99788.81
2022-11-17T14:24:41.412Z,99791.59
2022-11-17T14:27:37.016Z,99796.16
2022-11-17T14:30:10.574Z,99803.78
2022-11-17T14:32:42.443Z,99791.47
2022-11-17T14:35:15.377Z,99797.19
2022-11-17T14:37:47.604Z,99795.03
2022-11-17T14:40:19.699Z,99797.91
2022-11-17T14:42:51.546Z,99808.63
2022-11-17T14:45:23.435Z,99798.22
2022-11-17T14:47:55.511Z,99803.59
2022-11-17T14:50:27.454Z,99808.63
2022-11-17T14:52:59.805Z,99800.75
2022-11-17T14:55:31.652Z,99800.56
2022-11-17T14:58:03.612Z,99810.28
2022-11-17T15:00:35.474Z,99808.63
2022-11-17T15:03:07.700Z,99802.25
2022-11-17T15:05:46.202Z,99807.78
2022-11-17T15:08:18.148Z,99822.66
2022-11-17T15:10:51.265Z,99833.03
2022-11-17T15:13:23.120Z,99828.50
2022-11-17T15:16:04.233Z,99818.63
2022-11-17T15:18:36.394Z,99843.06
2022-11-17T15:21:10.354Z,99811.91
2022-11-17T15:23:43.389Z,99823.63
2022-11-17T15:26:18.740Z,99821.09
2022-11-17T15:28:50.656Z,99835.34
2022-11-17T15:31:22.525Z,99816.59
2022-11-17T15:33:54.474Z,99832.66
2022-11-17T15:36:26.552Z,99832.66
2022-11-17T15:38:58.677Z,99845.06
2022-11-17T15:41:33.058Z,99844.88
2022-11-17T15:44:05.243Z,99844.06
2022-11-17T15:46:37.120Z,99851.09
2022-11-17T15:49:09.001Z,99839.34
2022-11-17T15:51:41.077Z,99845.72
2022-11-17T15:54:18.421Z,99847.38
2022-11-17T15:56:53.014Z,99848.03
2022-11-17T15:59:24.902Z,99855.91
2022-11-17T16:01:56.795Z,99845.84
2022-11-17T16:04:28.893Z,99871.63
2022-11-17T16:07:00.841Z,99850.56
2022-11-17T16:09:34.453Z,99856.25
2022-11-17T16:12:06.523Z,99858.75
2022-11-17T16:14:38.953Z,99860.78
2022-11-17T16:17:10.825Z,99861.59
2022-11-17T16:19:42.804Z,99863.66
2022-11-17T16:22:14.874Z,99869.34
2022-11-17T16:24:46.831Z,99860.66
2022-11-17T16:27:18.841Z,99861.50
2022-11-17T16:29:50.783Z,99854.47
2022-11-17T16:32:22.816Z,99858.81
2022-11-17T16:34:55.088Z,99859.81
2022-11-17T16:37:27.390Z,99870.53
2022-11-17T16:40:01.335Z,99861.84
2022-11-17T16:42:33.331Z,99869.25
2022-11-17T16:45:05.791Z,99859.53
2022-11-17T16:47:38.121Z,99875.22
2022-11-17T16:50:10.271Z,99860.34
2022-11-17T16:52:45.045Z,99857.00
2022-11-17T16:55:17.253Z,99860.34
2022-11-17T16:57:49.434Z,99861.84
2022-11-17T17:00:21.557Z,99874.91
2022-11-17T17:02:53.982Z,99866.88
2022-11-17T17:05:26.182Z,99861.50
2022-11-17T17:07:58.154Z,99872.22
2022-11-17T17:10:30.160Z,99863.16
2022-11-17T17:13:02.086Z,99878.38
2022-11-17T17:15:34.034Z,99876.53
2022-11-17T17:18:06.474Z,99880.56
2022-11-17T17:20:38.337Z,99885.56
2022-11-17T17:23:10.652Z,99878.19
2022-11-17T17:25:43.046Z,99878.00
2022-11-17T17:28:15.119Z,99882.72
2022-11-17T17:30:53.858Z,99893.59
2022-11-17T17:33:27.054Z,99895.28
2022-11-17T17:36:06.820Z,99892.59
2022-11-17T17:38:39.199Z,99897.59
2022-11-17T17:41:16.682Z,99900.28
2022-11-17T17:43:55.116Z,99896.13
2022-11-17T17:46:29.872Z,99895.44
2022-11-17T17:49:02.399Z,99906.34
2022-11-17T17:51:38.061Z,99900.34
2022-11-17T17:54:17.282Z,99901.16
2022-11-17T17:56:49.571Z,99911.53
2022-11-17T17:59:21.464Z,99914.38
2022-11-17T18:01:53.496Z,99909.69
2022-11-17T18:04:25.627Z,99908.84
2022-11-17T18:06:59.371Z,99914.38
2022-11-17T18:09:31.416Z,99926.13
2022-11-17T18:12:03.594Z,99911.69
2022-11-17T18:14:35.640Z,99918.72
2022-11-17T18:17:07.567Z,99911.69
2022-11-17T18:19:39.990Z,99918.09
2022-11-17T18:22:12.134Z,99917.88
2022-11-17T18:24:44.072Z,99918.09
2022-11-17T18:27:16.259Z,99928.81
2022-11-17T18:29:48.510Z,99905.69
2022-11-17T18:32:20.909Z,99919.41
2022-11-17T18:34:52.978Z,99916.75
2022-11-17T18:37:24.872Z,99920.47
2022-11-17T18:39:56.925Z,99908.69
2022-11-17T18:42:28.989Z,99928.28
2022-11-17T18:45:00.853Z,99904.00
2022-11-17T18:47:32.927Z,99909.91
2022-11-17T18:50:05.163Z,99917.56
2022-11-17T18:52:37.350Z,99923.78
2022-11-17T18:55:09.488Z,99932.81
2022-11-17T18:57:44.888Z,99934.50
2022-11-17T19:00:17.814Z,99928.13
2022-11-17T19:02:49.781Z,99931.47
2022-11-17T19:05:21.852Z,99923.75
2022-11-17T19:07:56.315Z,99943.31
2022-11-17T19:10:28.214Z,99947.50
2022-11-17T19:13:00.289Z,99948.34
2022-11-17T19:15:32.459Z,99940.84
2022-11-17T19:18:04.519Z,99946.19
2022-11-17T19:20:36.661Z,99948.22
2022-11-17T19:23:08.661Z,99948.22
2022-11-17T19:25:42.248Z,99956.59
2022-11-17T19:28:14.988Z,99960.97
2022-11-17T19:30:46.976Z,99967.97
2022-11-17T19:33:18.992Z,99967.81
2022-11-17T19:35:50.918Z,99969.66
2022-11-17T19:38:22.939Z,99977.38
2022-11-17T19:40:54.940Z,99971.38
2022-11-17T19:43:26.910Z,99970.69
2022-11-17T19:46:00.311Z,99975.75
2022-11-17T19:48:32.588Z,99974.75
2022-11-17T19:51:20.389Z,99984.13
2022-11-17T19:53:54.687Z,99990.00
2022-11-17T19:56:26.916Z,99982.78
2022-11-17T19:58:59.204Z,99980.31
2022-11-17T20:01:33.071Z,99989.50
2022-11-17T20:04:07.295Z,99989.84
2022-11-17T20:06:39.539Z,99983.81
2022-11-17T20:09:13.675Z,99995.22
2022-11-17T20:11:45.823Z,99990.91
2022-11-17T20:14:18.091Z,99991.94
2022-11-17T20:16:50.159Z,99990.13
2022-11-17T20:19:22.068Z,99997.28
2022-11-17T20:21:53.898Z,100003.16
2022-11-17T20:24:25.911Z,100005.34
2022-11-17T20:26:57.745Z,100004.34
2022-11-17T20:29:29.673Z,99999.34
2022-11-17T20:32:01.996Z,99998.00
2022-11-17T20:34:33.980Z,99999.34
2022-11-17T20:37:05.890Z,100000.16
2022-11-17T20:39:38.033Z,100001.66
2022-11-17T20:42:10.392Z,100007.72
2022-11-17T20:44:42.663Z,100015.19
2022-11-17T20:47:15.043Z,100021.06
2022-11-17T20:49:46.947Z,100017.88
2022-11-17T20:52:18.948Z,100014.38
2022-11-17T20:54:50.835Z,100012.38
2022-11-17T20:57:22.825Z,100023.88
2022-11-17T20:59:54.759Z,100019.38
2022-11-17T21:02:26.662Z,100018.72
2022-11-17T21:04:58.817Z,100017.72
2022-11-17T21:07:30.750Z,100016.53
2022-11-17T21:10:03.062Z,100016.53
2022-11-17T21:12:35.084Z,100028.09
2022-11-17T21:15:07.484Z,100039.13
2022-11-17T21:17:58.132Z,100030.41
2022-11-17T21:20:30.142Z,100029.06
2022-11-17T21:23:02.374Z,100033.44
2022-11-17T21:25:35.712Z,100029.75
2022-11-17T21:28:07.569Z,100045.81
2022-11-17T21:30:39.438Z,100052.50
2022-11-17T21:33:11.385Z,100030.09
2022-11-17T21:35:43.531Z,100047.16
2022-11-17T21:38:15.578Z,100041.78
2022-11-17T21:40:47.398Z,100048.81
2022-11-17T21:43:19.459Z,100046.31
2022-11-17T21:45:51.383Z,100048.13
2022-11-17T21:48:23.289Z,100052.84
2022-11-17T21:50:55.507Z,100058.19
2022-11-17T21:53:28.152Z,100058.00
2022-11-17T21:56:01.569Z,100060.19
2022-11-17T21:58:33.936Z,100064.19
2022-11-17T22:01:33.990Z,100072.22
2022-11-17T22:04:06.900Z,100065.19
2022-11-17T22:06:39.154Z,100063.00
2022-11-17T22:09:11.497Z,100076.56
2022-11-17T22:11:43.425Z,100068.53
2022-11-17T22:14:19.656Z,100071.53
2022-11-17T22:16:53.164Z,100073.34
2022-11-17T22:19:28.288Z,100076.88
2022-11-17T22:22:00.095Z,100081.22
2022-11-17T22:24:32.015Z,100081.91
2022-11-17T22:27:04.031Z,100074.88
2022-11-17T22:29:35.990Z,100090.09
2022-11-17T22:32:07.838Z,100091.25
2022-11-17T22:34:39.678Z,100092.91
2022-11-17T22:37:11.844Z,100092.25
2022-11-17T22:39:43.686Z,100098.41
2022-11-17T22:42:18.682Z,100105.63
2022-11-17T22:44:50.624Z,100104.59
2022-11-17T22:47:22.445Z,100111.47
2022-11-17T22:49:54.263Z,100100.94
2022-11-17T22:52:26.197Z,100114.66
2022-11-17T22:54:58.094Z,100110.97
2022-11-17T22:57:29.969Z,100119.66
2022-11-17T23:00:02.132Z,100114.31
2022-11-17T23:02:37.053Z,100118.66
2022-11-17T23:05:09.193Z,100117.00
2022-11-17T23:07:41.110Z,100125.84
2022-11-17T23:10:13.298Z,100123.03
2022-11-17T23:12:45.168Z,100121.84
2022-11-17T23:15:17.147Z,100133.38
2022-11-17T23:17:49.245Z,100130.72
2022-11-17T23:20:21.143Z,100134.22
2022-11-17T23:22:56.389Z,100135.06
2022-11-17T23:25:28.525Z,100137.38
2022-11-17T23:28:01.439Z,100130.50
2022-11-17T23:30:33.655Z,100144.22
2022-11-17T23:33:05.554Z,100137.88
2022-11-17T23:35:37.455Z,100134.22
2022-11-17T23:38:09.246Z,100132.19
2022-11-17T23:40:41.101Z,100141.06
2022-11-17T23:43:13.025Z,100143.06
2022-11-17T23:45:44.868Z,100144.91
2022-11-17T23:48:16.701Z,100143.06
2022-11-17T23:50:48.549Z,100148.09
2022-11-17T23:53:20.448Z,100142.75
2022-11-17T23:55:55.839Z,100154.13
2022-11-17T23:58:28.395Z,100150.28
